createdAt,value
2022-12-05T00:03:16.913Z,4.8
2022-12-05T00:08:39.620Z,4.7
2022-12-05T00:14:02.068Z,4.7
2022-12-05T00:19:24.781Z,4.8
2022-12-05T00:25:03.092Z,4.8
2022-12-05T00:30:40.265Z,4.7
2022-12-05T00:36:01.646Z,4.7
2022-12-05T00:41:39.206Z,4.7
2022-12-05T00:47:25.227Z,4.7
2022-12-05T00:52:47.423Z,4.7
2022-12-05T00:58:25.171Z,4.7
2022-12-05T01:04:03.914Z,4.6
2022-12-05T01:09:26.852Z,4.6
2022-12-05T01:14:52.139Z,4.6
2022-12-05T01:20:15.089Z,4.6
2022-12-05T01:25:52.479Z,4.6
2022-12-05T01:31:15.649Z,4.5
2022-12-05T01:36:53.894Z,4.5
2022-12-05T01:42:18.014Z,4.5
2022-12-05T01:47:43.269Z,4.4
2022-12-05T01:53:06.297Z,4.4
2022-12-05T01:58:28.708Z,4.4
2022-12-05T02:04:07.134Z,4.4
2022-12-05T02:09:14.729Z,4.4
2022-12-05T02:14:39.518Z,4.4
2022-12-05T02:20:17.109Z,4.4
2022-12-05T02:25:54.538Z,4.4
2022-12-05T02:31:32.386Z,4.4
2022-12-05T02:36:53.591Z,4.4
2022-12-05T02:42:31.988Z,4.5
2022-12-05T02:48:09.914Z,4.4
2022-12-05T02:53:47.449Z,4.4
2022-12-05T02:59:25.224Z,4.4
2022-12-05T03:05:02.822Z,4.4
2022-12-05T03:10:40.956Z,4.5
2022-12-05T03:16:03.458Z,4.5
2022-12-05T03:21:42.069Z,4.5
2022-12-05T03:27:19.746Z,4.5
2022-12-05T03:32:42.626Z,4.5
2022-12-05T03:38:19.532Z,4.5
2022-12-05T03:43:43.612Z,4.5
2022-12-05T03:49:21.416Z,4.6
2022-12-05T03:55:18.933Z,4.6
2022-12-05T04:00:56.411Z,4.6
2022-12-05T04:06:19.403Z,4.6
2022-12-05T04:11:57.986Z,4.6
2022-12-05T04:17:35.519Z,4.6
2022-12-05T04:23:15.087Z,4.6
2022-12-05T04:28:22.232Z,4.6
2022-12-05T04:33:45.169Z,4.6
2022-12-05T04:38:52.211Z,4.6
2022-12-05T04:44:04.309Z,4.6
2022-12-05T04:49:11.552Z,4.6
2022-12-05T04:54:40.191Z,4.6
2022-12-05T05:00:23.708Z,4.6
2022-12-05T05:06:06.614Z,4.6
2022-12-05T05:11:45.501Z,4.6
2022-12-05T05:17:23.936Z,4.6
2022-12-05T05:23:01.743Z,4.6
2022-12-05T05:28:42.170Z,4.6
2022-12-05T05:34:09.298Z,4.7
2022-12-05T05:39:47.503Z,4.7
2022-12-05T05:45:32.139Z,4.7
2022-12-05T05:51:16.747Z,4.8
2022-12-05T05:56:56.261Z,4.8
2022-12-05T06:02:10.916Z,4.8
2022-12-05T06:07:54.923Z,4.8
2022-12-05T06:13:32.983Z,4.8
2022-12-05T06:19:11.407Z,4.8
2022-12-05T06:24:55.239Z,4.9
2022-12-05T06:30:37.892Z,4.9
2022-12-05T06:36:15.945Z,4.9
2022-12-05T06:41:53.162Z,5
2022-12-05T06:47:31.507Z,5.1
2022-12-05T06:52:58.599Z,5.2
2022-12-05T06:58:36.328Z,5.3
2022-12-05T07:04:15.789Z,5.4
2022-12-05T07:09:59.704Z,5.4
2022-12-05T07:16:03.218Z,5.6
2022-12-05T07:22:15.320Z,5.7
2022-12-05T07:28:00.584Z,5.8
2022-12-05T07:33:23.298Z,6
2022-12-05T07:39:00.895Z,6.2
2022-12-05T07:44:39.689Z,6.4
2022-12-05T07:50:20.477Z,6.6
2022-12-05T07:55:57.854Z,6.8
2022-12-05T08:01:36.931Z,6.9
2022-12-05T08:07:20.016Z,7.1
2022-12-05T08:13:04.379Z,7.3
2022-12-05T08:18:45.055Z,7.4
2022-12-05T08:24:06.792Z,7.6
2022-12-05T08:29:45.094Z,7.8
2022-12-05T08:35:11.338Z,8.1
2022-12-05T08:40:51.033Z,8.3
2022-12-05T08:46:29.726Z,8.6
2022-12-05T08:52:11.333Z,8.9
2022-12-05T08:57:55.217Z,9.2
2022-12-05T09:03:41.053Z,9.5
2022-12-05T09:09:42.584Z,9.7
2022-12-05T09:15:20.419Z,9.8
2022-12-05T09:21:00.808Z,10
2022-12-05T09:26:42.684Z,10.3
2022-12-05T09:32:26.120Z,10.4
2022-12-05T09:38:33.050Z,10.6
2022-12-05T09:44:10.853Z,10.8
2022-12-05T09:49:50.122Z,10.9
2022-12-05T09:55:32.601Z,11
2022-12-05T10:01:16.351Z,11.1
2022-12-05T10:07:01.767Z,11.3
2022-12-05T10:12:40.271Z,11.3
2022-12-05T10:18:21.583Z,11.3
2022-12-05T10:24:34.327Z,11.4
2022-12-05T10:30:15.369Z,11.3
2022-12-05T10:36:01.899Z,11.4
2022-12-05T10:41:45.699Z,11.5
2022-12-05T10:47:29.248Z,11.6
2022-12-05T10:53:07.023Z,11.6
2022-12-05T10:59:27.795Z,11.7
2022-12-05T11:05:11.654Z,11.7
2022-12-05T11:11:22.702Z,11.6
2022-12-05T11:17:07.333Z,11.6
2022-12-05T11:22:48.646Z,11.7
2022-12-05T11:28:30.870Z,11.6
2022-12-05T11:34:09.524Z,11.6
2022-12-05T11:39:48.288Z,11.5
2022-12-05T11:45:18.388Z,11.5
2022-12-05T11:50:43.723Z,11.5
2022-12-05T11:56:59.437Z,11.4
2022-12-05T12:02:41.121Z,11.3
2022-12-05T12:08:23.057Z,11.2
2022-12-05T12:14:06.420Z,11.2
2022-12-05T12:19:50.900Z,11.1
2022-12-05T12:25:34.832Z,10.9
2022-12-05T12:31:14.742Z,10.7
2022-12-05T12:36:38.603Z,10.4
2022-12-05T12:42:17.938Z,10.3
2022-12-05T12:48:30.422Z,10.3
2022-12-05T12:54:09.812Z,10.1
2022-12-05T13:00:27.469Z,10
2022-12-05T13:06:11.221Z,9.9
2022-12-05T13:11:53.432Z,9.8
2022-12-05T13:17:20.157Z,9.6
2022-12-05T13:22:42.815Z,9.5
2022-12-05T13:28:26.328Z,9.3
2022-12-05T13:33:56.436Z,9.2
2022-12-05T13:39:39.163Z,9.1
2022-12-05T13:45:33.575Z,8.8
2022-12-05T13:51:17.221Z,8.8
2022-12-05T13:57:00.943Z,8.6
2022-12-05T14:02:44.484Z,8.5
2022-12-05T14:08:22.126Z,8.4
2022-12-05T14:14:04.497Z,8.3
2022-12-05T14:19:51.089Z,8.1
2022-12-05T14:25:28.165Z,7.9
2022-12-05T14:31:19.562Z,7.8
2022-12-05T14:36:57.381Z,7.7
2022-12-05T14:42:39.057Z,7.6
2022-12-05T14:48:08.360Z,7.4
2022-12-05T14:53:38.961Z,7.3
2022-12-05T14:59:24.005Z,7.1
2022-12-05T15:05:04.573Z,7.1
2022-12-05T15:11:19.925Z,6.9
2022-12-05T15:16:59.505Z,6.8
2022-12-05T15:22:41.894Z,6.8
2022-12-05T15:28:51.025Z,6.6
2022-12-05T15:34:13.643Z,6.6
2022-12-05T15:39:56.158Z,6.5
2022-12-05T15:45:42.405Z,6.4
2022-12-05T15:51:20.390Z,6.4
2022-12-05T15:57:04.419Z,6.3
2022-12-05T16:02:45.692Z,6.3
2022-12-05T16:08:28.940Z,6.2
2022-12-05T16:14:11.845Z,6.2
2022-12-05T16:20:09.389Z,6.1
2022-12-05T16:25:53.165Z,6.1
2022-12-05T16:31:31.282Z,6.1
2022-12-05T16:37:09.996Z,6
2022-12-05T16:42:48.539Z,6
2022-12-05T16:48:34.395Z,5.9
2022-12-05T16:54:02.708Z,5.9
2022-12-05T16:59:25.174Z,5.9
2022-12-05T17:05:18.704Z,5.9
2022-12-05T17:11:00.537Z,5.9
2022-12-05T17:16:41.579Z,5.8
2022-12-05T17:22:10.289Z,5.8
2022-12-05T17:27:48.398Z,5.8
2022-12-05T17:33:01.746Z,5.8
2022-12-05T17:38:39.973Z,5.8
2022-12-05T17:44:21.014Z,5.7
2022-12-05T17:50:00.761Z,5.7
2022-12-05T17:55:48.992Z,5.7
2022-12-05T18:01:10.904Z,5.7
2022-12-05T18:06:37.846Z,5.6
2022-12-05T18:12:00.273Z,5.6
2022-12-05T18:17:12.566Z,5.6
2022-12-05T18:22:20.343Z,5.6
2022-12-05T18:27:28.635Z,5.6
2022-12-05T18:33:10.029Z,5.6
2022-12-05T18:38:38.941Z,5.6
2022-12-05T18:44:17.115Z,5.6
2022-12-05T18:50:12.102Z,5.6
2022-12-05T18:56:54.054Z,5.6
2022-12-05T19:02:33.154Z,5.5
2022-12-05T19:08:14.593Z,5.5
2022-12-05T19:13:53.369Z,5.5
2022-12-05T19:19:02.539Z,5.5
2022-12-05T19:24:13.102Z,5.5
2022-12-05T19:29:51.516Z,5.4
2022-12-05T19:35:33.777Z,5.5
2022-12-05T19:40:42.244Z,5.4
2022-12-05T19:46:26.222Z,5.4
2022-12-05T19:51:49.631Z,5.4
2022-12-05T19:57:31.188Z,5.4
2022-12-05T20:03:14.517Z,5.4
2022-12-05T20:08:38.274Z,5.4
2022-12-05T20:14:33.707Z,5.4
2022-12-05T20:19:57.766Z,5.4
2022-12-05T20:25:20.874Z,5.4
2022-12-05T20:30:59.823Z,5.3
2022-12-05T20:36:37.163Z,5.3
2022-12-05T20:42:03.689Z,5.3
2022-12-05T20:47:43.823Z,5.2
2022-12-05T20:53:21.714Z,5.2
2022-12-05T20:59:00.844Z,5.1
2022-12-05T21:04:45.400Z,5
2022-12-05T21:10:26.059Z,4.9
2022-12-05T21:16:04.108Z,4.9
2022-12-05T21:21:43.131Z,4.9
2022-12-05T21:27:20.786Z,4.9
2022-12-05T21:32:59.225Z,5
2022-12-05T21:38:21.145Z,5
2022-12-05T21:43:30.069Z,5
2022-12-05T21:49:04.940Z,5
2022-12-05T21:54:43.176Z,5.1
2022-12-05T22:00:26.780Z,5.1
2022-12-05T22:05:49.851Z,5.1
2022-12-05T22:11:33.021Z,5.1
2022-12-05T22:17:10.943Z,5.1
2022-12-05T22:22:49.678Z,5.1
2022-12-05T22:28:27.304Z,5.1
2022-12-05T22:34:08.021Z,5.1
2022-12-05T22:39:36.713Z,5.1
2022-12-05T22:45:14.145Z,5.1
2022-12-05T22:50:54.191Z,5.1
2022-12-05T22:56:32.294Z,5.1
2022-12-05T23:02:10.131Z,5.1
2022-12-05T23:07:52.623Z,5.1
2022-12-05T23:13:30.999Z,5.1
2022-12-05T23:19:09.859Z,5
2022-12-05T23:24:48.548Z,5
2022-12-05T23:30:26.598Z,4.9
2022-12-05T23:36:06.484Z,4.9
2022-12-05T23:41:44.877Z,4.9
2022-12-05T23:47:22.554Z,4.9
2022-12-05T23:53:02.069Z,4.9
2022-12-05T23:58:45.865Z,4.9
